Thunder radar more information blitzortung!


Radar de pluja more information rain snow radar


Visita la nostra xarxa de llocs de meteo:

Template documentation
and downloads

And another site



No particular awareness of the weather is required.    There are no Weather-warnings

Pagina Historial Weather Underground text

Diari Resum Setembre 2, 2017 Unitats:  Tant    Imperial   Mètric
« Previous Dia
SegĂźent Dia »
Diari Setmana Mensual Anual Personalitzada
  Maxima: Minima: Media:
Temperatura: 85.6 °F /  29.8 °C 57.9 °F /  14.4 °C 72.7 °F /  22.6 °C
Punt de rosada: 58.5 °F /  14.7 °C 42.4 °F /  5.8 °C 47.7 °F /  8.7 °C
Humitat: 68 % 23 % 44 %
Wind Speed: 12.7 mph /  20.4 km/h - 4.5 mph /  7.2 km/h
RĂ fegues de vent: 12.7 mph /  20.4 km/h - -
Vent:- - SSE
Pression baro: 30.1 in /  1019.9 hPa 30 in /  1014.8 hPa -
Precipitacions: 0 in /  0.0 mm    
Historical Graphs
 
 
Dades de taula per Setembre 2, 2017
Temps Temperatura Punt de rosada Pression baro Vent Wind Speed RĂ fegues de vent Humitat Rainfall Rate (Hourly)
00:00 61.9 °F /  16.6 °C 46.9 °F /  8.3 °C 30.1 in /  1017.8 hPa WSW 2 mph /  3.2 km/h 3 mph /  4.8 km/h 58 % 0 in /  0.0 mm
00:02 70.3 °F /  21.3 °C 58.5 °F /  14.7 °C 30 in /  1016.8 hPa ESE 2.4 mph /  3.9 km/h 3.3 mph /  5.3 km/h 66 % 0 in /  0.0 mm
00:10 61.7 °F /  16.5 °C 46.8 °F /  8.2 °C 30.1 in /  1017.8 hPa Calm   1 mph /  1.6 km/h 58 % 0 in /  0.0 mm
00:20 61.5 °F /  16.4 °C 46.6 °F /  8.1 °C 30.1 in /  1017.8 hPa WSW 1 mph /  1.6 km/h 2 mph /  3.2 km/h 58 % 0 in /  0.0 mm
00:30 61.2 °F /  16.2 °C 46.2 °F /  7.9 °C 30.1 in /  1017.8 hPa Calm     58 % 0 in /  0.0 mm
00:40 61 °F /  16.1 °C 46.6 °F /  8.1 °C 30.1 in /  1017.8 hPa SW 1 mph /  1.6 km/h 1 mph /  1.6 km/h 59 % 0 in /  0.0 mm
00:50 60.8 °F /  16.0 °C 46.4 °F /  8.0 °C 30.1 in /  1017.8 hPa WSW 1 mph /  1.6 km/h 2 mph /  3.2 km/h 59 % 0 in /  0.0 mm
01:00 60.8 °F /  16.0 °C 46.4 °F /  8.0 °C 30.1 in /  1017.8 hPa WSW 2 mph /  3.2 km/h 2 mph /  3.2 km/h 59 % 0 in /  0.0 mm
01:10 60.4 °F /  15.8 °C 46 °F /  7.8 °C 30.1 in /  1017.8 hPa Calm   2 mph /  3.2 km/h 59 % 0 in /  0.0 mm
01:20 60.4 °F /  15.8 °C 46 °F /  7.8 °C 30.1 in /  1017.8 hPa Calm     59 % 0 in /  0.0 mm
01:30 60.1 °F /  15.6 °C 45.7 °F /  7.6 °C 30.1 in /  1018.8 hPa SE 1 mph /  1.6 km/h 2 mph /  3.2 km/h 59 % 0 in /  0.0 mm
01:40 59.7 °F /  15.4 °C 45.3 °F /  7.4 °C 30.1 in /  1018.8 hPa SW 1 mph /  1.6 km/h 2 mph /  3.2 km/h 59 % 0 in /  0.0 mm
01:50 59.7 °F /  15.4 °C 45.9 °F /  7.7 °C 30.1 in /  1017.8 hPa Calm   3 mph /  4.8 km/h 60 % 0 in /  0.0 mm
02:00 59.4 °F /  15.2 °C 45.5 °F /  7.5 °C 30.1 in /  1017.8 hPa WSW 1 mph /  1.6 km/h 2 mph /  3.2 km/h 60 % 0 in /  0.0 mm
02:10 59.2 °F /  15.1 °C 45.3 °F /  7.4 °C 30.1 in /  1017.8 hPa WSW 1 mph /  1.6 km/h 2 mph /  3.2 km/h 60 % 0 in /  0.0 mm
02:20 59.2 °F /  15.1 °C 45.3 °F /  7.4 °C 30.1 in /  1017.8 hPa Calm   2 mph /  3.2 km/h 60 % 0 in /  0.0 mm
02:30 59 °F /  15.0 °C 45.7 °F /  7.6 °C 30.1 in /  1017.8 hPa Calm   3 mph /  4.8 km/h 61 % 0 in /  0.0 mm
02:40 58.8 °F /  14.9 °C 45.3 °F /  7.4 °C 30.1 in /  1017.8 hPa WSW 2 mph /  3.2 km/h 2 mph /  3.2 km/h 61 % 0 in /  0.0 mm
02:50 58.8 °F /  14.9 °C 45.3 °F /  7.4 °C 30.1 in /  1017.8 hPa WSW 2 mph /  3.2 km/h 3 mph /  4.8 km/h 61 % 0 in /  0.0 mm
03:00 58.5 °F /  14.7 °C 45.1 °F /  7.3 °C 30 in /  1016.8 hPa West 1 mph /  1.6 km/h 1 mph /  1.6 km/h 61 % 0 in /  0.0 mm
03:10 58.1 °F /  14.5 °C 44.8 °F /  7.1 °C 30 in /  1016.8 hPa SW 1 mph /  1.6 km/h 2 mph /  3.2 km/h 61 % 0 in /  0.0 mm
03:20 57.9 °F /  14.4 °C 44.4 °F /  6.9 °C 30 in /  1016.8 hPa SW 1 mph /  1.6 km/h 2 mph /  3.2 km/h 61 % 0 in /  0.0 mm
03:30 57.9 °F /  14.4 °C 45 °F /  7.2 °C 30.1 in /  1017.8 hPa Calm   1 mph /  1.6 km/h 62 % 0 in /  0.0 mm
03:40 57.9 °F /  14.4 °C 45 °F /  7.2 °C 30.1 in /  1017.8 hPa West 1 mph /  1.6 km/h 1 mph /  1.6 km/h 62 % 0 in /  0.0 mm
03:50 58.1 °F /  14.5 °C 45.7 °F /  7.6 °C 30.1 in /  1017.8 hPa West 1 mph /  1.6 km/h 2 mph /  3.2 km/h 63 % 0 in /  0.0 mm
04:00 58.6 °F /  14.8 °C 45.7 °F /  7.6 °C 30.1 in /  1017.8 hPa WSW 1 mph /  1.6 km/h 2 mph /  3.2 km/h 62 % 0 in /  0.0 mm
04:10 59.2 °F /  15.1 °C 46.2 °F /  7.9 °C 30.1 in /  1017.8 hPa Calm   1 mph /  1.6 km/h 62 % 0 in /  0.0 mm
04:20 60.8 °F /  16.0 °C 47.7 °F /  8.7 °C 30.1 in /  1018.8 hPa SW 1 mph /  1.6 km/h 2 mph /  3.2 km/h 62 % 0 in /  0.0 mm
04:30 60.4 °F /  15.8 °C 46.9 °F /  8.3 °C 30.1 in /  1018.8 hPa WSW 1 mph /  1.6 km/h 3 mph /  4.8 km/h 61 % 0 in /  0.0 mm
04:40 61.7 °F /  16.5 °C 48 °F /  8.9 °C 30.1 in /  1018.8 hPa WSW 1 mph /  1.6 km/h 1 mph /  1.6 km/h 61 % 0 in /  0.0 mm
04:50 62.4 °F /  16.9 °C 48.4 °F /  9.1 °C 30.1 in /  1018.8 hPa NW 1 mph /  1.6 km/h 3 mph /  4.8 km/h 60 % 0 in /  0.0 mm
05:00 62.8 °F /  17.1 °C 47.8 °F /  8.8 °C 30.1 in /  1018.8 hPa NNE 3 mph /  4.8 km/h 4 mph /  6.4 km/h 58 % 0 in /  0.0 mm
05:10 63 °F /  17.2 °C 47.8 °F /  8.8 °C 30.1 in /  1018.8 hPa ENE 1 mph /  1.6 km/h 3 mph /  4.8 km/h 58 % 0 in /  0.0 mm
05:20 63.5 °F /  17.5 °C 48.6 °F /  9.2 °C 30.1 in /  1018.8 hPa ENE 2 mph /  3.2 km/h 2 mph /  3.2 km/h 58 % 0 in /  0.0 mm
05:30 64.2 °F /  17.9 °C 48.7 °F /  9.3 °C 30.1 in /  1018.8 hPa ENE 1 mph /  1.6 km/h 3 mph /  4.8 km/h 57 % 0 in /  0.0 mm
05:40 64.6 °F /  18.1 °C 48.6 °F /  9.2 °C 30.1 in /  1018.8 hPa ENE 3 mph /  4.8 km/h 3 mph /  4.8 km/h 56 % 0 in /  0.0 mm
05:50 65.1 °F /  18.4 °C 48.9 °F /  9.4 °C 30.1 in /  1018.8 hPa Calm   4 mph /  6.4 km/h 56 % 0 in /  0.0 mm
06:00 67.3 °F /  19.6 °C 50.2 °F /  10.1 °C 30.1 in /  1019.9 hPa SE 1 mph /  1.6 km/h 1 mph /  1.6 km/h 54 % 0 in /  0.0 mm
06:10 66 °F /  18.9 °C 48.9 °F /  9.4 °C 30.1 in /  1019.9 hPa East 3 mph /  4.8 km/h 4 mph /  6.4 km/h 54 % 0 in /  0.0 mm
06:20 66.7 °F /  19.3 °C 49.1 °F /  9.5 °C 30.1 in /  1019.9 hPa NE 1 mph /  1.6 km/h 3 mph /  4.8 km/h 53 % 0 in /  0.0 mm
11:23 72 °F /  22.2 °C 51.8 °F /  11.0 °C 30.1 in /  1019.9 hPa ENE 2.3 mph /  3.7 km/h 2.6 mph /  4.2 km/h 49 % 0 in /  0.0 mm
11:24 72 °F /  22.2 °C 51.8 °F /  11.0 °C 30.1 in /  1019.9 hPa ENE 2.3 mph /  3.7 km/h 2.6 mph /  4.2 km/h 49 % 0 in /  0.0 mm
11:25 71.8 °F /  22.1 °C 51.1 °F /  10.6 °C 30.1 in /  1019.9 hPa ENE 3.5 mph /  5.6 km/h 3.5 mph /  5.6 km/h 48 % 0 in /  0.0 mm
11:30 72 °F /  22.2 °C 51.3 °F /  10.7 °C 30.1 in /  1019.9 hPa ESE 3.5 mph /  5.6 km/h 3.5 mph /  5.6 km/h 48 % 0 in /  0.0 mm
11:35 71.6 °F /  22.0 °C 50.9 °F /  10.5 °C 30.1 in /  1019.9 hPa ENE 5.8 mph /  9.3 km/h 5.8 mph /  9.3 km/h 48 % 0 in /  0.0 mm
11:40 70.9 °F /  21.6 °C 50.2 °F /  10.1 °C 30.1 in /  1019.9 hPa East 4.6 mph /  7.4 km/h 4.6 mph /  7.4 km/h 48 % 0 in /  0.0 mm
11:45 72.1 °F /  22.3 °C 51.4 °F /  10.8 °C 30.1 in /  1019.9 hPa SSW 2.3 mph /  3.7 km/h 2.3 mph /  3.7 km/h 48 % 0 in /  0.0 mm
11:50 72.5 °F /  22.5 °C 50.5 °F /  10.3 °C 30.1 in /  1019.9 hPa ESE 4.6 mph /  7.4 km/h 4.6 mph /  7.4 km/h 46 % 0 in /  0.0 mm
11:55 72.9 °F /  22.7 °C 50.9 °F /  10.5 °C 30.1 in /  1019.9 hPa East 3.5 mph /  5.6 km/h 3.5 mph /  5.6 km/h 46 % 0 in /  0.0 mm
12:00 73.8 °F /  23.2 °C 51.6 °F /  10.9 °C 30.1 in /  1019.9 hPa NW 3.5 mph /  5.6 km/h 3.5 mph /  5.6 km/h 46 % 0 in /  0.0 mm
12:05 74.8 °F /  23.8 °C 52.2 °F /  11.2 °C 30.1 in /  1019.9 hPa South 3.5 mph /  5.6 km/h 3.5 mph /  5.6 km/h 45 % 0 in /  0.0 mm
12:10 73.9 °F /  23.3 °C 51.3 °F /  10.7 °C 30.1 in /  1019.9 hPa SW 3.5 mph /  5.6 km/h 3.5 mph /  5.6 km/h 45 % 0 in /  0.0 mm
12:15 74.7 °F /  23.7 °C 52 °F /  11.1 °C 30.1 in /  1019.9 hPa NE 3.5 mph /  5.6 km/h 3.5 mph /  5.6 km/h 45 % 0 in /  0.0 mm
12:20 75.7 °F /  24.3 °C 51.6 °F /  10.9 °C 30.1 in /  1019.9 hPa East 3.6 mph /  5.8 km/h 3.6 mph /  5.8 km/h 43 % 0 in /  0.0 mm
12:25 73.6 °F /  23.1 °C 49.6 °F /  9.8 °C 30.1 in /  1019.9 hPa NE 4.6 mph /  7.4 km/h 4.6 mph /  7.4 km/h 43 % 0 in /  0.0 mm
12:30 73.9 °F /  23.3 °C 50 °F /  10.0 °C 30.1 in /  1019.9 hPa ENE 5.8 mph /  9.3 km/h 5.8 mph /  9.3 km/h 43 % 0 in /  0.0 mm
12:35 74.5 °F /  23.6 °C 50.5 °F /  10.3 °C 30.1 in /  1019.9 hPa South 2.3 mph /  3.7 km/h 2.3 mph /  3.7 km/h 43 % 0 in /  0.0 mm
12:40 76.1 °F /  24.5 °C 51.3 °F /  10.7 °C 30.1 in /  1018.8 hPa SSW 7.8 mph /  12.6 km/h 7.8 mph /  12.6 km/h 42 % 0 in /  0.0 mm
12:45 76.6 °F /  24.8 °C 51.8 °F /  11.0 °C 30.1 in /  1018.8 hPa WSW 5.8 mph /  9.3 km/h 5.8 mph /  9.3 km/h 42 % 0 in /  0.0 mm
12:50 77.9 °F /  25.5 °C 52.3 °F /  11.3 °C 30.1 in /  1018.8 hPa NW 2.9 mph /  4.7 km/h 2.9 mph /  4.7 km/h 41 % 0 in /  0.0 mm
12:55 78.1 °F /  25.6 °C 52.5 °F /  11.4 °C 30.1 in /  1017.8 hPa NNW 3.5 mph /  5.6 km/h 3.5 mph /  5.6 km/h 41 % 0 in /  0.0 mm
13:00 77.2 °F /  25.1 °C 51.1 °F /  10.6 °C 30.1 in /  1017.8 hPa NE 4.6 mph /  7.4 km/h 4.6 mph /  7.4 km/h 40 % 0 in /  0.0 mm
13:05 77.9 °F /  25.5 °C 51.6 °F /  10.9 °C 30.1 in /  1017.8 hPa NNW 3.8 mph /  6.1 km/h 3.8 mph /  6.1 km/h 40 % 0 in /  0.0 mm
13:10 78.4 °F /  25.8 °C 50 °F /  10.0 °C 30.1 in /  1017.8 hPa South 2.3 mph /  3.7 km/h 2.3 mph /  3.7 km/h 37 % 0 in /  0.0 mm
13:15 79 °F /  26.1 °C 51.3 °F /  10.7 °C 30.1 in /  1017.8 hPa NNW 4 mph /  6.4 km/h 4 mph /  6.4 km/h 38 % 0 in /  0.0 mm
13:20 79.3 °F /  26.3 °C 50.2 °F /  10.1 °C 30.1 in /  1017.8 hPa West 5.8 mph /  9.3 km/h 5.8 mph /  9.3 km/h 36 % 0 in /  0.0 mm
13:25 79.5 °F /  26.4 °C 49.5 °F /  9.7 °C 30.1 in /  1017.8 hPa ESE 4.9 mph /  7.9 km/h 4.9 mph /  7.9 km/h 35 % 0 in /  0.0 mm
13:30 79.5 °F /  26.4 °C 47.1 °F /  8.4 °C 30.1 in /  1017.8 hPa WNW 3.5 mph /  5.6 km/h 3.5 mph /  5.6 km/h 32 % 0 in /  0.0 mm
13:35 79.7 °F /  26.5 °C 46.4 °F /  8.0 °C 30.1 in /  1017.8 hPa SW 5.9 mph /  9.5 km/h 5.9 mph /  9.5 km/h 31 % 0 in /  0.0 mm
13:40 79.2 °F /  26.2 °C 45.9 °F /  7.7 °C 30.1 in /  1017.8 hPa West 8.1 mph /  13.0 km/h 8.1 mph /  13.0 km/h 31 % 0 in /  0.0 mm
13:45 79.9 °F /  26.6 °C 47.5 °F /  8.6 °C 30.1 in /  1017.8 hPa SW 4.6 mph /  7.4 km/h 4.6 mph /  7.4 km/h 32 % 0 in /  0.0 mm
13:50 79.9 °F /  26.6 °C 46.6 °F /  8.1 °C 30.1 in /  1017.8 hPa WSW 6.9 mph /  11.1 km/h 6.9 mph /  11.1 km/h 31 % 0 in /  0.0 mm
13:55 80.6 °F /  27.0 °C 46.2 °F /  7.9 °C 30.1 in /  1017.8 hPa West 3.5 mph /  5.6 km/h 3.8 mph /  6.1 km/h 30 % 0 in /  0.0 mm
14:00 80.2 °F /  26.8 °C 45.1 °F /  7.3 °C 30.1 in /  1017.8 hPa NW 8.1 mph /  13.0 km/h 8.1 mph /  13.0 km/h 29 % 0 in /  0.0 mm
14:05 80.6 °F /  27.0 °C 45.3 °F /  7.4 °C 30.1 in /  1017.8 hPa South 3.5 mph /  5.6 km/h 3.5 mph /  5.6 km/h 29 % 0 in /  0.0 mm
14:10 81.1 °F /  27.3 °C 45.9 °F /  7.7 °C 30.1 in /  1017.8 hPa West 6.9 mph /  11.1 km/h 6.9 mph /  11.1 km/h 29 % 0 in /  0.0 mm
14:15 81.1 °F /  27.3 °C 45.9 °F /  7.7 °C 30.1 in /  1017.8 hPa WSW 8.1 mph /  13.0 km/h 8.1 mph /  13.0 km/h 29 % 0 in /  0.0 mm
14:20 81.5 °F /  27.5 °C 45.1 °F /  7.3 °C 30.1 in /  1017.8 hPa West 2.3 mph /  3.7 km/h 2.4 mph /  3.9 km/h 28 % 0 in /  0.0 mm
14:25 81.9 °F /  27.7 °C 46.6 °F /  8.1 °C 30.1 in /  1017.8 hPa WSW 6.4 mph /  10.3 km/h 6.4 mph /  10.3 km/h 29 % 0 in /  0.0 mm
14:30 81.5 °F /  27.5 °C 45.1 °F /  7.3 °C 30.1 in /  1017.8 hPa SW 5.8 mph /  9.3 km/h 5.8 mph /  9.3 km/h 28 % 0 in /  0.0 mm
14:35 82 °F /  27.8 °C 45.7 °F /  7.6 °C 30.1 in /  1017.8 hPa WSW 8.1 mph /  13.0 km/h 8.1 mph /  13.0 km/h 28 % 0 in /  0.0 mm
14:40 82.4 °F /  28.0 °C 46 °F /  7.8 °C 30 in /  1016.8 hPa WSW 6 mph /  9.7 km/h 6 mph /  9.7 km/h 28 % 0 in /  0.0 mm
14:45 82.2 °F /  27.9 °C 45.9 °F /  7.7 °C 30 in /  1016.8 hPa WSW 9.2 mph /  14.8 km/h 9.2 mph /  14.8 km/h 28 % 0 in /  0.0 mm
14:50 82 °F /  27.8 °C 44.8 °F /  7.1 °C 30 in /  1016.8 hPa West 9 mph /  14.5 km/h 9 mph /  14.5 km/h 27 % 0 in /  0.0 mm
14:55 82.2 °F /  27.9 °C 45 °F /  7.2 °C 30 in /  1016.8 hPa SSW 8.1 mph /  13.0 km/h 8.1 mph /  13.0 km/h 27 % 0 in /  0.0 mm
15:00 81.9 °F /  27.7 °C 44.6 °F /  7.0 °C 30 in /  1016.8 hPa West 6.2 mph /  10.0 km/h 6.2 mph /  10.0 km/h 27 % 0 in /  0.0 mm
15:05 82.4 °F /  28.0 °C 45.1 °F /  7.3 °C 30 in /  1016.8 hPa WSW 3.8 mph /  6.1 km/h 3.8 mph /  6.1 km/h 27 % 0 in /  0.0 mm
15:10 82.4 °F /  28.0 °C 45.1 °F /  7.3 °C 30 in /  1016.8 hPa West 8.1 mph /  13.0 km/h 8.1 mph /  13.0 km/h 27 % 0 in /  0.0 mm
15:15 82.2 °F /  27.9 °C 45 °F /  7.2 °C 30 in /  1016.8 hPa WSW 4.6 mph /  7.4 km/h 4.6 mph /  7.4 km/h 27 % 0 in /  0.0 mm
15:20 82 °F /  27.8 °C 44.8 °F /  7.1 °C 30 in /  1016.8 hPa SW 4.6 mph /  7.4 km/h 4.6 mph /  7.4 km/h 27 % 0 in /  0.0 mm
15:25 82.2 °F /  27.9 °C 45 °F /  7.2 °C 30 in /  1016.8 hPa WSW 8.1 mph /  13.0 km/h 8.1 mph /  13.0 km/h 27 % 0 in /  0.0 mm
15:30 81.9 °F /  27.7 °C 43.5 °F /  6.4 °C 30 in /  1016.8 hPa SW 8.1 mph /  13.0 km/h 8.1 mph /  13.0 km/h 26 % 0 in /  0.0 mm
15:35 82 °F /  27.8 °C 43.9 °F /  6.6 °C 30 in /  1016.8 hPa SW 5.8 mph /  9.3 km/h 5.8 mph /  9.3 km/h 26 % 0 in /  0.0 mm
15:40 82.9 °F /  28.3 °C 44.4 °F /  6.9 °C 30 in /  1015.8 hPa SW 5.8 mph /  9.3 km/h 5.8 mph /  9.3 km/h 26 % 0 in /  0.0 mm
15:45 82.4 °F /  28.0 °C 43 °F /  6.1 °C 30 in /  1015.8 hPa West 8.1 mph /  13.0 km/h 8.1 mph /  13.0 km/h 25 % 0 in /  0.0 mm
15:50 82.6 °F /  28.1 °C 43.2 °F /  6.2 °C 30 in /  1015.8 hPa SW 11.5 mph /  18.5 km/h 11.5 mph /  18.5 km/h 25 % 0 in /  0.0 mm
15:55 82.9 °F /  28.3 °C 43.5 °F /  6.4 °C 30 in /  1015.8 hPa SSW 6.9 mph /  11.1 km/h 6.9 mph /  11.1 km/h 25 % 0 in /  0.0 mm
16:00 83.5 °F /  28.6 °C 43.9 °F /  6.6 °C 30 in /  1015.8 hPa SW 9.2 mph /  14.8 km/h 9.2 mph /  14.8 km/h 25 % 0 in /  0.0 mm
16:05 83.3 °F /  28.5 °C 43.9 °F /  6.6 °C 30 in /  1015.8 hPa WSW 9.4 mph /  15.1 km/h 9.4 mph /  15.1 km/h 25 % 0 in /  0.0 mm
16:10 83.5 °F /  28.6 °C 43.9 °F /  6.6 °C 30 in /  1015.8 hPa SW 4.6 mph /  7.4 km/h 4.6 mph /  7.4 km/h 25 % 0 in /  0.0 mm
16:15 83.3 °F /  28.5 °C 43.9 °F /  6.6 °C 30 in /  1015.8 hPa NNW 3.6 mph /  5.8 km/h 3.6 mph /  5.8 km/h 25 % 0 in /  0.0 mm
16:20 83.8 °F /  28.8 °C 43.2 °F /  6.2 °C 30 in /  1015.8 hPa WNW 5.8 mph /  9.3 km/h 5.8 mph /  9.3 km/h 24 % 0 in /  0.0 mm
16:25 84.2 °F /  29.0 °C 43.5 °F /  6.4 °C 30 in /  1015.8 hPa West 3.5 mph /  5.6 km/h 3.5 mph /  5.6 km/h 24 % 0 in /  0.0 mm
16:30 83.7 °F /  28.7 °C 43 °F /  6.1 °C 30 in /  1015.8 hPa SSE 9.2 mph /  14.8 km/h 9.2 mph /  14.8 km/h 24 % 0 in /  0.0 mm
16:35 83.8 °F /  28.8 °C 43.2 °F /  6.2 °C 30 in /  1015.8 hPa WNW 3.5 mph /  5.6 km/h 3.5 mph /  5.6 km/h 24 % 0 in /  0.0 mm
16:40 84.2 °F /  29.0 °C 43.5 °F /  6.4 °C 30 in /  1015.8 hPa SW 6.9 mph /  11.1 km/h 6.9 mph /  11.1 km/h 24 % 0 in /  0.0 mm
16:45 85.3 °F /  29.6 °C 44.4 °F /  6.9 °C 30 in /  1015.8 hPa SSE 3.5 mph /  5.6 km/h 3.5 mph /  5.6 km/h 24 % 0 in /  0.0 mm
16:50 85.5 °F /  29.7 °C 44.4 °F /  6.9 °C 30 in /  1015.8 hPa SSW 5.8 mph /  9.3 km/h 5.8 mph /  9.3 km/h 24 % 0 in /  0.0 mm
16:55 85.3 °F /  29.6 °C 44.4 °F /  6.9 °C 30 in /  1015.8 hPa SW 8.1 mph /  13.0 km/h 8.1 mph /  13.0 km/h 24 % 0 in /  0.0 mm
17:00 85.1 °F /  29.5 °C 44.2 °F /  6.8 °C 30 in /  1015.8 hPa West 8.1 mph /  13.0 km/h 8.1 mph /  13.0 km/h 24 % 0 in /  0.0 mm
17:05 85.1 °F /  29.5 °C 44.2 °F /  6.8 °C 30 in /  1015.8 hPa SSW 8.1 mph /  13.0 km/h 8.1 mph /  13.0 km/h 24 % 0 in /  0.0 mm
17:10 84.6 °F /  29.2 °C 42.6 °F /  5.9 °C 30 in /  1015.8 hPa SW 9.8 mph /  15.8 km/h 9.8 mph /  15.8 km/h 23 % 0 in /  0.0 mm
17:15 84 °F /  28.9 °C 43.3 °F /  6.3 °C 30 in /  1015.8 hPa West 9.2 mph /  14.8 km/h 9.2 mph /  14.8 km/h 24 % 0 in /  0.0 mm
17:20 84.9 °F /  29.4 °C 43 °F /  6.1 °C 30 in /  1015.8 hPa SSW 4.6 mph /  7.4 km/h 4.6 mph /  7.4 km/h 23 % 0 in /  0.0 mm
17:25 85.6 °F /  29.8 °C 44.8 °F /  7.1 °C 30 in /  1014.8 hPa South 5.9 mph /  9.5 km/h 5.9 mph /  9.5 km/h 24 % 0 in /  0.0 mm
17:30 84.9 °F /  29.4 °C 43 °F /  6.1 °C 30 in /  1014.8 hPa West 8.1 mph /  13.0 km/h 8.1 mph /  13.0 km/h 23 % 0 in /  0.0 mm
17:35 84.9 °F /  29.4 °C 43 °F /  6.1 °C 30 in /  1014.8 hPa WSW 4.6 mph /  7.4 km/h 4.6 mph /  7.4 km/h 23 % 0 in /  0.0 mm
17:40 84.9 °F /  29.4 °C 43 °F /  6.1 °C 30 in /  1015.8 hPa SSW 5.8 mph /  9.3 km/h 5.8 mph /  9.3 km/h 23 % 0 in /  0.0 mm
17:45 85.1 °F /  29.5 °C 43.2 °F /  6.2 °C 30 in /  1015.8 hPa SW 8.1 mph /  13.0 km/h 8.1 mph /  13.0 km/h 23 % 0 in /  0.0 mm
17:50 84.9 °F /  29.4 °C 43 °F /  6.1 °C 30 in /  1015.8 hPa WSW 5.8 mph /  9.3 km/h 5.8 mph /  9.3 km/h 23 % 0 in /  0.0 mm
17:55 84.7 °F /  29.3 °C 42.8 °F /  6.0 °C 30 in /  1014.8 hPa SSW 8.1 mph /  13.0 km/h 8.1 mph /  13.0 km/h 23 % 0 in /  0.0 mm
18:00 84.4 °F /  29.1 °C 42.4 °F /  5.8 °C 30 in /  1014.8 hPa West 8.1 mph /  13.0 km/h 8.1 mph /  13.0 km/h 23 % 0 in /  0.0 mm
18:05 84.7 °F /  29.3 °C 42.8 °F /  6.0 °C 30 in /  1014.8 hPa WNW 4.6 mph /  7.4 km/h 4.6 mph /  7.4 km/h 23 % 0 in /  0.0 mm
18:10 84.6 °F /  29.2 °C 42.6 °F /  5.9 °C 30 in /  1014.8 hPa SW 3.5 mph /  5.6 km/h 3.5 mph /  5.6 km/h 23 % 0 in /  0.0 mm
18:15 84.2 °F /  29.0 °C 42.4 °F /  5.8 °C 30 in /  1014.8 hPa SW 8.1 mph /  13.0 km/h 8.1 mph /  13.0 km/h 23 % 0 in /  0.0 mm
18:20 84 °F /  28.9 °C 43.3 °F /  6.3 °C 30 in /  1014.8 hPa West 6.9 mph /  11.1 km/h 6.9 mph /  11.1 km/h 24 % 0 in /  0.0 mm
18:25 84 °F /  28.9 °C 43.3 °F /  6.3 °C 30 in /  1014.8 hPa WSW 5.8 mph /  9.3 km/h 5.8 mph /  9.3 km/h 24 % 0 in /  0.0 mm
18:30 83.7 °F /  28.7 °C 43 °F /  6.1 °C 30 in /  1014.8 hPa SSW 8.1 mph /  13.0 km/h 8.1 mph /  13.0 km/h 24 % 0 in /  0.0 mm
18:35 82.6 °F /  28.1 °C 43.2 °F /  6.2 °C 30 in /  1014.8 hPa SW 9.2 mph /  14.8 km/h 9.2 mph /  14.8 km/h 25 % 0 in /  0.0 mm
18:40 81.9 °F /  27.7 °C 43.5 °F /  6.4 °C 30 in /  1014.8 hPa WSW 6.4 mph /  10.3 km/h 6.4 mph /  10.3 km/h 26 % 0 in /  0.0 mm
18:45 81.5 °F /  27.5 °C 44.2 °F /  6.8 °C 30 in /  1014.8 hPa SW 8.1 mph /  13.0 km/h 8.1 mph /  13.0 km/h 27 % 0 in /  0.0 mm
18:50 81.1 °F /  27.3 °C 44.1 °F /  6.7 °C 30 in /  1014.8 hPa SSW 3.5 mph /  5.6 km/h 3.5 mph /  5.6 km/h 27 % 0 in /  0.0 mm
18:55 81 °F /  27.2 °C 43.9 °F /  6.6 °C 30 in /  1015.8 hPa SW 5.8 mph /  9.3 km/h 5.8 mph /  9.3 km/h 27 % 0 in /  0.0 mm
19:00 79.5 °F /  26.4 °C 43.5 °F /  6.4 °C 30 in /  1015.8 hPa SSW 3.5 mph /  5.6 km/h 4 mph /  6.4 km/h 28 % 0 in /  0.0 mm
19:05 79 °F /  26.1 °C 44.1 °F /  6.7 °C 30 in /  1015.8 hPa SSW 8.1 mph /  13.0 km/h 8.1 mph /  13.0 km/h 29 % 0 in /  0.0 mm
19:10 78.4 °F /  25.8 °C 43.5 °F /  6.4 °C 30 in /  1016.8 hPa South 11.5 mph /  18.5 km/h 11.5 mph /  18.5 km/h 29 % 0 in /  0.0 mm
19:15 78.1 °F /  25.6 °C 43.2 °F /  6.2 °C 30 in /  1016.8 hPa South 3.5 mph /  5.6 km/h 3.5 mph /  5.6 km/h 29 % 0 in /  0.0 mm
19:16 78.1 °F /  25.6 °C 43.2 °F /  6.2 °C 30 in /  1016.8 hPa SW 3.6 mph /  5.8 km/h 3.6 mph /  5.8 km/h 29 % 0 in /  0.0 mm
19:21 78.1 °F /  25.6 °C 43.2 °F /  6.2 °C 30 in /  1016.8 hPa East 2.9 mph /  4.7 km/h 2.9 mph /  4.7 km/h 29 % 0 in /  0.0 mm
19:25 67.5 °F /  19.7 °C 52.2 °F /  11.2 °C 30.1 in /  1017.8 hPa NNE 3 mph /  4.8 km/h 4 mph /  6.4 km/h 58 % 0 in /  0.0 mm
19:26 77.5 °F /  25.3 °C 43.5 °F /  6.4 °C 30 in /  1015.8 hPa ESE 5.8 mph /  9.3 km/h 5.8 mph /  9.3 km/h 30 % 0 in /  0.0 mm
19:31 77.2 °F /  25.1 °C 43.3 °F /  6.3 °C 30 in /  1015.8 hPa East 5.9 mph /  9.5 km/h 5.9 mph /  9.5 km/h 30 % 0 in /  0.0 mm
19:35 67.6 °F /  19.8 °C 52.9 °F /  11.6 °C 30.1 in /  1017.8 hPa NNE 3 mph /  4.8 km/h 4 mph /  6.4 km/h 59 % 0 in /  0.0 mm
19:36 76.6 °F /  24.8 °C 44.6 °F /  7.0 °C 30 in /  1015.8 hPa SE 3.5 mph /  5.6 km/h 3.5 mph /  5.6 km/h 32 % 0 in /  0.0 mm
19:41 76.1 °F /  24.5 °C 44.1 °F /  6.7 °C 30 in /  1014.8 hPa ESE 6.9 mph /  11.1 km/h 6.9 mph /  11.1 km/h 32 % 0 in /  0.0 mm
19:45 67.5 °F /  19.7 °C 52.5 °F /  11.4 °C 30.1 in /  1018.8 hPa NNE 3 mph /  4.8 km/h 4 mph /  6.4 km/h 59 % 0 in /  0.0 mm
19:46 75.6 °F /  24.2 °C 44.4 °F /  6.9 °C 30 in /  1014.8 hPa ENE 10.4 mph /  16.7 km/h 10.4 mph /  16.7 km/h 33 % 0 in /  0.0 mm
19:51 75 °F /  23.9 °C 46.2 °F /  7.9 °C 30 in /  1014.8 hPa ENE 9.7 mph /  15.6 km/h 9.7 mph /  15.6 km/h 36 % 0 in /  0.0 mm
19:55 67.3 °F /  19.6 °C 52.5 °F /  11.4 °C 30.1 in /  1018.8 hPa NNE 3 mph /  4.8 km/h 4 mph /  6.4 km/h 59 % 0 in /  0.0 mm
19:56 74.8 °F /  23.8 °C 46.8 °F /  8.2 °C 30 in /  1015.8 hPa ESE 9.2 mph /  14.8 km/h 9.2 mph /  14.8 km/h 37 % 0 in /  0.0 mm
20:01 74.7 °F /  23.7 °C 47.5 °F /  8.6 °C 30 in /  1015.8 hPa ENE 9.2 mph /  14.8 km/h 9.2 mph /  14.8 km/h 38 % 0 in /  0.0 mm
20:05 67.3 °F /  19.6 °C 52.5 °F /  11.4 °C 30.1 in /  1018.8 hPa NNE 2 mph /  3.2 km/h 5 mph /  8.0 km/h 59 % 0 in /  0.0 mm
20:06 74.3 °F /  23.5 °C 46.9 °F /  8.3 °C 30 in /  1015.8 hPa East 5.8 mph /  9.3 km/h 5.8 mph /  9.3 km/h 38 % 0 in /  0.0 mm
20:11 73.9 °F /  23.3 °C 47.5 °F /  8.6 °C 30 in /  1015.8 hPa NNE 12.7 mph /  20.4 km/h 12.7 mph /  20.4 km/h 39 % 0 in /  0.0 mm
20:15 67.3 °F /  19.6 °C 52.5 °F /  11.4 °C 30.1 in /  1017.8 hPa NNE 2 mph /  3.2 km/h 4 mph /  6.4 km/h 59 % 0 in /  0.0 mm
20:16 73.8 °F /  23.2 °C 47.8 °F /  8.8 °C 30 in /  1015.8 hPa NE 4.9 mph /  7.9 km/h 4.9 mph /  7.9 km/h 40 % 0 in /  0.0 mm
20:21 73.4 °F /  23.0 °C 47.7 °F /  8.7 °C 30 in /  1015.8 hPa East 6.9 mph /  11.1 km/h 6.9 mph /  11.1 km/h 40 % 0 in /  0.0 mm
20:25 66.9 °F /  19.4 °C 52.5 °F /  11.4 °C 30.1 in /  1018.8 hPa NNE 1 mph /  1.6 km/h 3 mph /  4.8 km/h 60 % 0 in /  0.0 mm
20:26 73.2 °F /  22.9 °C 48 °F /  8.9 °C 30 in /  1016.8 hPa ENE 6.9 mph /  11.1 km/h 6.9 mph /  11.1 km/h 41 % 0 in /  0.0 mm
20:31 73 °F /  22.8 °C 47.8 °F /  8.8 °C 30 in /  1016.8 hPa ESE 5.8 mph /  9.3 km/h 5.8 mph /  9.3 km/h 41 % 0 in /  0.0 mm
20:35 66.6 °F /  19.2 °C 52.2 °F /  11.2 °C 30.1 in /  1018.8 hPa NNE 1 mph /  1.6 km/h 3 mph /  4.8 km/h 60 % 0 in /  0.0 mm
20:36 72.9 °F /  22.7 °C 48.4 °F /  9.1 °C 30 in /  1016.8 hPa ENE 10.4 mph /  16.7 km/h 10.4 mph /  16.7 km/h 42 % 0 in /  0.0 mm
20:41 72.7 °F /  22.6 °C 48.9 °F /  9.4 °C 30 in /  1016.8 hPa ESE 5.9 mph /  9.5 km/h 5.9 mph /  9.5 km/h 43 % 0 in /  0.0 mm
20:45 66.4 °F /  19.1 °C 52.5 °F /  11.4 °C 30.1 in /  1018.8 hPa Calm     61 % 0 in /  0.0 mm
20:46 72.5 °F /  22.5 °C 48.7 °F /  9.3 °C 30 in /  1016.8 hPa NE 6.9 mph /  11.1 km/h 6.9 mph /  11.1 km/h 43 % 0 in /  0.0 mm
20:51 72.1 °F /  22.3 °C 48.9 °F /  9.4 °C 30 in /  1016.8 hPa ENE 6.9 mph /  11.1 km/h 6.9 mph /  11.1 km/h 44 % 0 in /  0.0 mm
20:55 66.4 °F /  19.1 °C 52.5 °F /  11.4 °C 30.1 in /  1017.8 hPa NNE 2 mph /  3.2 km/h 2 mph /  3.2 km/h 61 % 0 in /  0.0 mm
20:56 71.8 °F /  22.1 °C 49.3 °F /  9.6 °C 30.1 in /  1017.8 hPa ENE 4.6 mph /  7.4 km/h 4.6 mph /  7.4 km/h 45 % 0 in /  0.0 mm
21:01 71.6 °F /  22.0 °C 49.1 °F /  9.5 °C 30.1 in /  1017.8 hPa NE 4.6 mph /  7.4 km/h 4.6 mph /  7.4 km/h 45 % 0 in /  0.0 mm
21:05 66.4 °F /  19.1 °C 52.5 °F /  11.4 °C 30.1 in /  1017.8 hPa NNE 3 mph /  4.8 km/h 3 mph /  4.8 km/h 61 % 0 in /  0.0 mm
21:06 71.2 °F /  21.8 °C 50 °F /  10.0 °C 30.1 in /  1017.8 hPa NNE 5.8 mph /  9.3 km/h 5.8 mph /  9.3 km/h 47 % 0 in /  0.0 mm
21:11 71.1 °F /  21.7 °C 49.8 °F /  9.9 °C 30.1 in /  1017.8 hPa NE 3.6 mph /  5.8 km/h 3.6 mph /  5.8 km/h 47 % 0 in /  0.0 mm
21:15 66.2 °F /  19.0 °C 52.3 °F /  11.3 °C 30.1 in /  1017.8 hPa NNE 2 mph /  3.2 km/h 3 mph /  4.8 km/h 61 % 0 in /  0.0 mm
21:16 70.9 °F /  21.6 °C 49.6 °F /  9.8 °C 30.1 in /  1017.8 hPa East 5.8 mph /  9.3 km/h 5.8 mph /  9.3 km/h 47 % 0 in /  0.0 mm
21:21 70.5 °F /  21.4 °C 49.8 °F /  9.9 °C 30.1 in /  1017.8 hPa NNE 5.8 mph /  9.3 km/h 5.8 mph /  9.3 km/h 48 % 0 in /  0.0 mm
21:25 65.7 °F /  18.7 °C 52.7 °F /  11.5 °C 30.1 in /  1017.8 hPa NNE 1 mph /  1.6 km/h 2 mph /  3.2 km/h 63 % 0 in /  0.0 mm
21:26 70.3 °F /  21.3 °C 49.6 °F /  9.8 °C 30.1 in /  1017.8 hPa ENE 8.1 mph /  13.0 km/h 8.1 mph /  13.0 km/h 48 % 0 in /  0.0 mm
21:31 70.2 °F /  21.2 °C 49.5 °F /  9.7 °C 30.1 in /  1017.8 hPa NNE 5.8 mph /  9.3 km/h 5.8 mph /  9.3 km/h 48 % 0 in /  0.0 mm
21:35 65.3 °F /  18.5 °C 52.3 °F /  11.3 °C 30.1 in /  1017.8 hPa Calm   2 mph /  3.2 km/h 63 % 0 in /  0.0 mm
21:36 69.8 °F /  21.0 °C 49.3 °F /  9.6 °C 30.1 in /  1017.8 hPa NNE 5.8 mph /  9.3 km/h 5.8 mph /  9.3 km/h 48 % 0 in /  0.0 mm
21:41 69.6 °F /  20.9 °C 49.6 °F /  9.8 °C 30.1 in /  1017.8 hPa NNE 7.4 mph /  11.9 km/h 7.4 mph /  11.9 km/h 49 % 0 in /  0.0 mm
21:45 65.1 °F /  18.4 °C 52.2 °F /  11.2 °C 30.1 in /  1017.8 hPa NNE 2 mph /  3.2 km/h 3 mph /  4.8 km/h 63 % 0 in /  0.0 mm
21:46 69.6 °F /  20.9 °C 50.2 °F /  10.1 °C 30.1 in /  1017.8 hPa ENE 5.8 mph /  9.3 km/h 5.8 mph /  9.3 km/h 50 % 0 in /  0.0 mm
21:51 69.4 °F /  20.8 °C 50 °F /  10.0 °C 30.1 in /  1017.8 hPa NE 9 mph /  14.5 km/h 9 mph /  14.5 km/h 50 % 0 in /  0.0 mm
21:55 64.9 °F /  18.3 °C 52 °F /  11.1 °C 30.1 in /  1017.8 hPa NNE 1 mph /  1.6 km/h 2 mph /  3.2 km/h 63 % 0 in /  0.0 mm
21:56 69.3 °F /  20.7 °C 49.8 °F /  9.9 °C 30.1 in /  1018.8 hPa ENE 6.9 mph /  11.1 km/h 6.9 mph /  11.1 km/h 50 % 0 in /  0.0 mm
22:01 69.1 °F /  20.6 °C 49.6 °F /  9.8 °C 30.1 in /  1018.8 hPa NNE 5.8 mph /  9.3 km/h 5.8 mph /  9.3 km/h 50 % 0 in /  0.0 mm
22:05 64.8 °F /  18.2 °C 52 °F /  11.1 °C 30.1 in /  1017.8 hPa NE 1 mph /  1.6 km/h 3 mph /  4.8 km/h 63 % 0 in /  0.0 mm
22:06 69.1 °F /  20.6 °C 50.2 °F /  10.1 °C 30.1 in /  1018.8 hPa NE 5.8 mph /  9.3 km/h 5.8 mph /  9.3 km/h 51 % 0 in /  0.0 mm
22:11 68.9 °F /  20.5 °C 50 °F /  10.0 °C 30.1 in /  1017.8 hPa ENE 5.8 mph /  9.3 km/h 5.8 mph /  9.3 km/h 51 % 0 in /  0.0 mm
22:15 64.4 °F /  18.0 °C 51.4 °F /  10.8 °C 30.1 in /  1017.8 hPa NNE 1 mph /  1.6 km/h 4 mph /  6.4 km/h 63 % 0 in /  0.0 mm
22:16 68.9 °F /  20.5 °C 50 °F /  10.0 °C 30.1 in /  1017.8 hPa NE 4.6 mph /  7.4 km/h 4.6 mph /  7.4 km/h 51 % 0 in /  0.0 mm
22:21 68.7 °F /  20.4 °C 49.8 °F /  9.9 °C 30.1 in /  1017.8 hPa NNE 5.8 mph /  9.3 km/h 5.8 mph /  9.3 km/h 51 % 0 in /  0.0 mm
22:25 64 °F /  17.8 °C 51.3 °F /  10.7 °C 30.1 in /  1017.8 hPa North 1 mph /  1.6 km/h 4 mph /  6.4 km/h 63 % 0 in /  0.0 mm
22:26 68.7 °F /  20.4 °C 50.4 °F /  10.2 °C 30.1 in /  1017.8 hPa NNE 5.8 mph /  9.3 km/h 5.8 mph /  9.3 km/h 52 % 0 in /  0.0 mm
22:31 68.5 °F /  20.3 °C 50.2 °F /  10.1 °C 30.1 in /  1017.8 hPa NNE 5.8 mph /  9.3 km/h 5.8 mph /  9.3 km/h 52 % 0 in /  0.0 mm
22:35 63.7 °F /  17.6 °C 50.7 °F /  10.4 °C 30.1 in /  1017.8 hPa NW 1 mph /  1.6 km/h 2 mph /  3.2 km/h 63 % 0 in /  0.0 mm
22:36 68.5 °F /  20.3 °C 50.2 °F /  10.1 °C 30.1 in /  1017.8 hPa NNW 4.6 mph /  7.4 km/h 4.6 mph /  7.4 km/h 52 % 0 in /  0.0 mm
22:41 68.4 °F /  20.2 °C 50 °F /  10.0 °C 30.1 in /  1018.8 hPa ENE 4.6 mph /  7.4 km/h 4.6 mph /  7.4 km/h 52 % 0 in /  0.0 mm
22:45 63.5 °F /  17.5 °C 51.1 °F /  10.6 °C 30.1 in /  1017.8 hPa Calm   1 mph /  1.6 km/h 64 % 0 in /  0.0 mm
22:46 68.4 °F /  20.2 °C 50.5 °F /  10.3 °C 30.1 in /  1018.8 hPa NNE 4.6 mph /  7.4 km/h 4.6 mph /  7.4 km/h 53 % 0 in /  0.0 mm
22:51 68.4 °F /  20.2 °C 50.5 °F /  10.3 °C 30.1 in /  1018.8 hPa NNE 3.5 mph /  5.6 km/h 3.6 mph /  5.8 km/h 53 % 0 in /  0.0 mm
22:55 63.1 °F /  17.3 °C 50.7 °F /  10.4 °C 30.1 in /  1017.8 hPa Calm   1 mph /  1.6 km/h 64 % 0 in /  0.0 mm
22:56 68.2 °F /  20.1 °C 50.4 °F /  10.2 °C 30.1 in /  1018.8 hPa North 4.6 mph /  7.4 km/h 4.6 mph /  7.4 km/h 53 % 0 in /  0.0 mm
23:01 68.2 °F /  20.1 °C 50.9 °F /  10.5 °C 30.1 in /  1018.8 hPa NNE 3.5 mph /  5.6 km/h 3.5 mph /  5.6 km/h 54 % 0 in /  0.0 mm
23:05 63 °F /  17.2 °C 50.5 °F /  10.3 °C 30.1 in /  1017.8 hPa West 1 mph /  1.6 km/h 1 mph /  1.6 km/h 64 % 0 in /  0.0 mm
23:06 68.2 °F /  20.1 °C 50.9 °F /  10.5 °C 30.1 in /  1018.8 hPa NNE 4.6 mph /  7.4 km/h 4.6 mph /  7.4 km/h 54 % 0 in /  0.0 mm
23:11 68.2 °F /  20.1 °C 50.9 °F /  10.5 °C 30.1 in /  1018.8 hPa NNW 5.8 mph /  9.3 km/h 5.8 mph /  9.3 km/h 54 % 0 in /  0.0 mm
23:15 62.8 °F /  17.1 °C 50.7 °F /  10.4 °C 30.1 in /  1017.8 hPa Calm   1 mph /  1.6 km/h 65 % 0 in /  0.0 mm
23:16 68 °F /  20.0 °C 50.7 °F /  10.4 °C 30.1 in /  1018.8 hPa NNE 5.8 mph /  9.3 km/h 5.8 mph /  9.3 km/h 54 % 0 in /  0.0 mm
23:21 68 °F /  20.0 °C 51.3 °F /  10.7 °C 30.1 in /  1018.8 hPa NNE 5.8 mph /  9.3 km/h 5.8 mph /  9.3 km/h 55 % 0 in /  0.0 mm
23:25 62.4 °F /  16.9 °C 50.9 °F /  10.5 °C 30.1 in /  1017.8 hPa NW 1 mph /  1.6 km/h 2 mph /  3.2 km/h 66 % 0 in /  0.0 mm
23:26 68 °F /  20.0 °C 51.3 °F /  10.7 °C 30.1 in /  1018.8 hPa NNE 6.9 mph /  11.1 km/h 6.9 mph /  11.1 km/h 55 % 0 in /  0.0 mm
23:31 68 °F /  20.0 °C 51.3 °F /  10.7 °C 30.1 in /  1018.8 hPa NNE 5.8 mph /  9.3 km/h 5.8 mph /  9.3 km/h 55 % 0 in /  0.0 mm
23:36 67.8 °F /  19.9 °C 51.4 °F /  10.8 °C 30.1 in /  1018.8 hPa NNE 5.8 mph /  9.3 km/h 5.8 mph /  9.3 km/h 56 % 0 in /  0.0 mm
23:41 67.8 °F /  19.9 °C 51.4 °F /  10.8 °C 30.1 in /  1018.8 hPa NE 4.6 mph /  7.4 km/h 4.6 mph /  7.4 km/h 56 % 0 in /  0.0 mm
23:45 61.7 °F /  16.5 °C 51.1 °F /  10.6 °C 30.1 in /  1017.8 hPa WSW 1 mph /  1.6 km/h 2 mph /  3.2 km/h 68 % 0 in /  0.0 mm
23:46 67.8 °F /  19.9 °C 51.4 °F /  10.8 °C 30.1 in /  1018.8 hPa NNE 4.6 mph /  7.4 km/h 4.6 mph /  7.4 km/h 56 % 0 in /  0.0 mm
23:51 67.8 °F /  19.9 °C 51.4 °F /  10.8 °C 30.1 in /  1018.8 hPa NNE 4.6 mph /  7.4 km/h 4.6 mph /  7.4 km/h 56 % 0 in /  0.0 mm
23:55 61.3 °F /  16.3 °C 50.7 °F /  10.4 °C 30 in /  1016.8 hPa WSW 1 mph /  1.6 km/h 2 mph /  3.2 km/h 68 % 0 in /  0.0 mm
23:56 67.6 °F /  19.8 °C 51.4 °F /  10.8 °C 30.1 in /  1018.8 hPa NE 4.6 mph /  7.4 km/h 4.6 mph /  7.4 km/h 56 % 0 in /  0.0 mm
Meteo Sesrovires
Elogis d' Weather Underground - 3.75 mb

Guio original per  Jim McMurry - jmcmurry@mwt.net Adaptat per a la plantilla per  Wim van der Kuil - Leuven-Template.eu

Trobareu la nostra informacio del temps tambe a:

Weather Underground

AWEKAS